sensor_id;sensor_type;location;lat;lon;timestamp;temperature;humidity
38866;DHT22;62686;48.984;8.394;2023-02-01T00:00:54;5.10;99.90
38866;DHT22;62686;48.984;8.394;2023-02-01T00:03:23;5.10;99.90
38866;DHT22;62686;48.984;8.394;2023-02-01T00:05:57;5.10;99.90
38866;DHT22;62686;48.984;8.394;2023-02-01T00:08:26;5.10;99.90
38866;DHT22;62686;48.984;8.394;2023-02-01T00:11:03;5.10;99.90
38866;DHT22;62686;48.984;8.394;2023-02-01T00:13:32;5.10;99.90
38866;DHT22;62686;48.984;8.394;2023-02-01T00:16:05;5.10;99.90
38866;DHT22;62686;48.984;8.394;2023-02-01T00:18:33;5.10;99.90
38866;DHT22;62686;48.984;8.394;2023-02-01T00:21:01;5.10;99.90
38866;DHT22;62686;48.984;8.394;2023-02-01T00:23:32;5.10;99.90
38866;DHT22;62686;48.984;8.394;2023-02-01T00:26:03;5.20;99.90
38866;DHT22;62686;48.984;8.394;2023-02-01T00:28:32;5.20;99.90
38866;DHT22;62686;48.984;8.394;2023-02-01T00:31:04;5.20;99.90
38866;DHT22;62686;48.984;8.394;2023-02-01T00:33:32;5.20;99.90
38866;DHT22;62686;48.984;8.394;2023-02-01T00:36:03;5.20;99.90
38866;DHT22;62686;48.984;8.394;2023-02-01T00:38:32;5.30;99.90
38866;DHT22;62686;48.984;8.394;2023-02-01T00:41:06;5.30;99.90
38866;DHT22;62686;48.984;8.394;2023-02-01T00:43:35;5.30;99.90
38866;DHT22;62686;48.984;8.394;2023-02-01T00:46:03;5.30;99.90
38866;DHT22;62686;48.984;8.394;2023-02-01T00:48:31;5.30;99.90
38866;DHT22;62686;48.984;8.394;2023-02-01T00:51:00;5.30;99.90
38866;DHT22;62686;48.984;8.394;2023-02-01T00:53:28;5.30;99.90
38866;DHT22;62686;48.984;8.394;2023-02-01T00:55:59;5.30;99.90
38866;DHT22;62686;48.984;8.394;2023-02-01T00:58:29;5.30;99.90
38866;DHT22;62686;48.984;8.394;2023-02-01T01:01:03;5.30;99.90
38866;DHT22;62686;48.984;8.394;2023-02-01T01:03:33;5.20;99.90
38866;DHT22;62686;48.984;8.394;2023-02-01T01:06:03;5.10;99.90
38866;DHT22;62686;48.984;8.394;2023-02-01T01:08:31;5.10;99.90
38866;DHT22;62686;48.984;8.394;2023-02-01T01:11:04;5.00;99.90
38866;DHT22;62686;48.984;8.394;2023-02-01T01:13:35;5.00;99.90
38866;DHT22;62686;48.984;8.394;2023-02-01T01:16:04;4.90;99.90
38866;DHT22;62686;48.984;8.394;2023-02-01T01:18:34;4.90;99.90
38866;DHT22;62686;48.984;8.394;2023-02-01T01:21:04;4.90;99.90
38866;DHT22;62686;48.984;8.394;2023-02-01T01:23:32;4.90;99.90
38866;DHT22;62686;48.984;8.394;2023-02-01T01:26:04;5.00;99.90
38866;DHT22;62686;48.984;8.394;2023-02-01T01:28:35;5.00;99.90
38866;DHT22;62686;48.984;8.394;2023-02-01T01:31:03;5.00;99.90
38866;DHT22;62686;48.984;8.394;2023-02-01T01:33:31;5.00;99.90
38866;DHT22;62686;48.984;8.394;2023-02-01T01:35:59;5.10;99.90
38866;DHT22;62686;48.984;8.394;2023-02-01T01:38:27;5.10;99.90
38866;DHT22;62686;48.984;8.394;2023-02-01T01:40:55;5.10;99.90
38866;DHT22;62686;48.984;8.394;2023-02-01T01:43:23;5.10;99.90
38866;DHT22;62686;48.984;8.394;2023-02-01T01:45:53;5.20;99.90
38866;DHT22;62686;48.984;8.394;2023-02-01T01:48:24;5.20;99.90
38866;DHT22;62686;48.984;8.394;2023-02-01T01:50:57;5.20;99.90
38866;DHT22;62686;48.984;8.394;2023-02-01T01:53:29;5.20;99.90
38866;DHT22;62686;48.984;8.394;2023-02-01T01:56:00;5.20;99.90
38866;DHT22;62686;48.984;8.394;2023-02-01T01:58:32;5.20;99.90
38866;DHT22;62686;48.984;8.394;2023-02-01T02:01:02;5.20;99.90
38866;DHT22;62686;48.984;8.394;2023-02-01T02:03:33;5.20;99.90
38866;DHT22;62686;48.984;8.394;2023-02-01T02:06:05;5.20;99.90
38866;DHT22;62686;48.984;8.394;2023-02-01T02:08:40;5.30;99.90
38866;DHT22;62686;48.984;8.394;2023-02-01T02:11:10;5.30;99.90
38866;DHT22;62686;48.984;8.394;2023-02-01T02:13:42;5.30;99.90
38866;DHT22;62686;48.984;8.394;2023-02-01T02:23:00;5.30;99.90
38866;DHT22;62686;48.984;8.394;2023-02-01T02:32:45;5.30;99.90
38866;DHT22;62686;48.984;8.394;2023-02-01T02:35:24;5.40;99.90
38866;DHT22;62686;48.984;8.394;2023-02-01T02:37:59;5.40;99.90
38866;DHT22;62686;48.984;8.394;2023-02-01T02:40:33;5.40;99.90
38866;DHT22;62686;48.984;8.394;2023-02-01T02:43:10;5.30;99.90
38866;DHT22;62686;48.984;8.394;2023-02-01T02:46:01;5.30;99.90
38866;DHT22;62686;48.984;8.394;2023-02-01T02:48:52;5.40;99.90
38866;DHT22;62686;48.984;8.394;2023-02-01T02:51:27;5.40;99.90
38866;DHT22;62686;48.984;8.394;2023-02-01T02:54:17;5.40;99.90
38866;DHT22;62686;48.984;8.394;2023-02-01T02:57:06;5.40;99.90
38866;DHT22;62686;48.984;8.394;2023-02-01T02:59:55;5.40;99.90
38866;DHT22;62686;48.984;8.394;2023-02-01T03:02:43;5.50;99.90
38866;DHT22;62686;48.984;8.394;2023-02-01T03:05:32;5.50;99.90
38866;DHT22;62686;48.984;8.394;2023-02-01T03:08:08;5.40;99.90
38866;DHT22;62686;48.984;8.394;2023-02-01T03:10:55;5.50;99.90
38866;DHT22;62686;48.984;8.394;2023-02-01T03:13:31;5.50;99.90
38866;DHT22;62686;48.984;8.394;2023-02-01T03:16:04;5.30;99.90
38866;DHT22;62686;48.984;8.394;2023-02-01T03:18:37;5.30;99.90
38866;DHT22;62686;48.984;8.394;2023-02-01T03:21:10;5.10;99.90
38866;DHT22;62686;48.984;8.394;2023-02-01T03:23:42;5.00;99.90
38866;DHT22;62686;48.984;8.394;2023-02-01T03:26:13;5.00;99.90
38866;DHT22;62686;48.984;8.394;2023-02-01T03:28:44;5.00;99.90
38866;DHT22;62686;48.984;8.394;2023-02-01T03:31:16;5.00;99.90
38866;DHT22;62686;48.984;8.394;2023-02-01T03:33:44;4.90;99.90
38866;DHT22;62686;48.984;8.394;2023-02-01T03:36:19;5.00;99.90
38866;DHT22;62686;48.984;8.394;2023-02-01T03:38:55;5.00;99.90
38866;DHT22;62686;48.984;8.394;2023-02-01T03:41:31;5.00;99.90
38866;DHT22;62686;48.984;8.394;2023-02-01T03:44:08;5.00;99.90
38866;DHT22;62686;48.984;8.394;2023-02-01T03:46:42;5.00;99.90
38866;DHT22;62686;48.984;8.394;2023-02-01T03:49:18;5.00;99.90
38866;DHT22;62686;48.984;8.394;2023-02-01T03:51:49;5.10;99.90
38866;DHT22;62686;48.984;8.394;2023-02-01T03:54:20;5.00;99.90
38866;DHT22;62686;48.984;8.394;2023-02-01T03:56:48;5.10;99.90
38866;DHT22;62686;48.984;8.394;2023-02-01T03:59:18;5.10;99.90
38866;DHT22;62686;48.984;8.394;2023-02-01T04:01:46;5.20;99.90
38866;DHT22;62686;48.984;8.394;2023-02-01T04:04:14;5.30;99.90
38866;DHT22;62686;48.984;8.394;2023-02-01T04:06:46;5.30;99.90
38866;DHT22;62686;48.984;8.394;2023-02-01T04:09:15;5.40;99.90
38866;DHT22;62686;48.984;8.394;2023-02-01T04:11:45;5.40;99.90
38866;DHT22;62686;48.984;8.394;2023-02-01T04:14:13;5.30;99.90
38866;DHT22;62686;48.984;8.394;2023-02-01T04:16:41;5.30;99.90
38866;DHT22;62686;48.984;8.394;2023-02-01T04:19:09;5.10;99.90
38866;DHT22;62686;48.984;8.394;2023-02-01T04:21:37;5.00;99.90
38866;DHT22;62686;48.984;8.394;2023-02-01T04:24:06;5.00;99.90
38866;DHT22;62686;48.984;8.394;2023-02-01T04:26:35;4.90;99.90
38866;DHT22;62686;48.984;8.394;2023-02-01T04:29:04;5.00;99.90
38866;DHT22;62686;48.984;8.394;2023-02-01T04:31:32;5.00;99.90
38866;DHT22;62686;48.984;8.394;2023-02-01T04:34:03;4.90;99.90
38866;DHT22;62686;48.984;8.394;2023-02-01T04:36:31;4.90;99.90
38866;DHT22;62686;48.984;8.394;2023-02-01T04:38:59;4.90;99.90
38866;DHT22;62686;48.984;8.394;2023-02-01T04:41:27;4.90;99.90
38866;DHT22;62686;48.984;8.394;2023-02-01T04:43:55;4.80;99.90
38866;DHT22;62686;48.984;8.394;2023-02-01T04:46:25;4.80;99.90
38866;DHT22;62686;48.984;8.394;2023-02-01T04:48:53;4.80;99.90
38866;DHT22;62686;48.984;8.394;2023-02-01T04:51:21;4.80;99.90
38866;DHT22;62686;48.984;8.394;2023-02-01T04:53:49;4.80;99.90
38866;DHT22;62686;48.984;8.394;2023-02-01T04:56:17;4.80;99.90
38866;DHT22;62686;48.984;8.394;2023-02-01T04:58:45;4.80;99.90
38866;DHT22;62686;48.984;8.394;2023-02-01T05:01:13;4.90;99.90
38866;DHT22;62686;48.984;8.394;2023-02-01T05:03:42;4.80;99.90
38866;DHT22;62686;48.984;8.394;2023-02-01T05:06:10;4.80;99.90
38866;DHT22;62686;48.984;8.394;2023-02-01T05:08:38;4.80;99.90
38866;DHT22;62686;48.984;8.394;2023-02-01T05:11:06;4.90;99.90
38866;DHT22;62686;48.984;8.394;2023-02-01T05:13:54;4.80;99.90
38866;DHT22;62686;48.984;8.394;2023-02-01T05:16:21;4.80;99.90
38866;DHT22;62686;48.984;8.394;2023-02-01T05:18:51;4.80;99.90
38866;DHT22;62686;48.984;8.394;2023-02-01T05:21:19;4.70;99.90
38866;DHT22;62686;48.984;8.394;2023-02-01T05:23:47;4.70;99.90
38866;DHT22;62686;48.984;8.394;2023-02-01T05:26:37;4.70;99.90
38866;DHT22;62686;48.984;8.394;2023-02-01T05:29:06;4.70;99.90
38866;DHT22;62686;48.984;8.394;2023-02-01T05:31:34;4.70;99.90
38866;DHT22;62686;48.984;8.394;2023-02-01T05:34:05;4.60;99.90
38866;DHT22;62686;48.984;8.394;2023-02-01T05:36:33;4.60;99.90
38866;DHT22;62686;48.984;8.394;2023-02-01T05:39:01;4.60;99.90
38866;DHT22;62686;48.984;8.394;2023-02-01T05:41:29;4.60;99.90
38866;DHT22;62686;48.984;8.394;2023-02-01T05:43:57;4.70;99.90
38866;DHT22;62686;48.984;8.394;2023-02-01T05:46:26;4.70;99.90
38866;DHT22;62686;48.984;8.394;2023-02-01T05:48:54;4.70;99.90
38866;DHT22;62686;48.984;8.394;2023-02-01T05:51:23;4.70;99.90
38866;DHT22;62686;48.984;8.394;2023-02-01T05:53:51;4.70;99.90
38866;DHT22;62686;48.984;8.394;2023-02-01T05:56:19;4.80;99.90
38866;DHT22;62686;48.984;8.394;2023-02-01T05:58:47;4.80;99.90
38866;DHT22;62686;48.984;8.394;2023-02-01T06:01:15;4.90;99.90
38866;DHT22;62686;48.984;8.394;2023-02-01T06:03:43;4.90;99.90
38866;DHT22;62686;48.984;8.394;2023-02-01T06:06:11;5.00;99.90
38866;DHT22;62686;48.984;8.394;2023-02-01T06:08:41;5.00;99.90
38866;DHT22;62686;48.984;8.394;2023-02-01T06:11:09;5.00;99.90
38866;DHT22;62686;48.984;8.394;2023-02-01T06:13:41;5.00;99.90
38866;DHT22;62686;48.984;8.394;2023-02-01T06:16:09;5.00;99.90
38866;DHT22;62686;48.984;8.394;2023-02-01T06:18:37;5.10;99.90
38866;DHT22;62686;48.984;8.394;2023-02-01T06:21:05;5.10;99.90
38866;DHT22;62686;48.984;8.394;2023-02-01T06:23:33;5.10;99.90
38866;DHT22;62686;48.984;8.394;2023-02-01T06:26:04;5.20;99.90
38866;DHT22;62686;48.984;8.394;2023-02-01T06:28:33;5.30;99.90
38866;DHT22;62686;48.984;8.394;2023-02-01T06:31:03;5.30;99.90
38866;DHT22;62686;48.984;8.394;2023-02-01T06:33:33;5.30;99.90
38866;DHT22;62686;48.984;8.394;2023-02-01T06:36:02;5.30;99.90
38866;DHT22;62686;48.984;8.394;2023-02-01T06:38:31;5.40;99.90
38866;DHT22;62686;48.984;8.394;2023-02-01T06:41:03;5.40;99.90
38866;DHT22;62686;48.984;8.394;2023-02-01T06:43:31;5.30;99.90
38866;DHT22;62686;48.984;8.394;2023-02-01T06:46:01;5.30;99.90
38866;DHT22;62686;48.984;8.394;2023-02-01T06:48:29;5.40;99.90
38866;DHT22;62686;48.984;8.394;2023-02-01T06:50:57;5.40;99.90
38866;DHT22;62686;48.984;8.394;2023-02-01T06:53:26;5.40;99.90
38866;DHT22;62686;48.984;8.394;2023-02-01T06:55:55;5.40;99.90
38866;DHT22;62686;48.984;8.394;2023-02-01T06:58:27;5.40;99.90
38866;DHT22;62686;48.984;8.394;2023-02-01T07:00:55;5.40;99.90
38866;DHT22;62686;48.984;8.394;2023-02-01T07:03:24;5.40;99.90
38866;DHT22;62686;48.984;8.394;2023-02-01T07:05:55;5.40;99.90
38866;DHT22;62686;48.984;8.394;2023-02-01T07:08:26;5.40;99.90
38866;DHT22;62686;48.984;8.394;2023-02-01T07:10:54;5.30;99.90
38866;DHT22;62686;48.984;8.394;2023-02-01T07:13:24;5.20;99.90
38866;DHT22;62686;48.984;8.394;2023-02-01T07:15:52;5.10;99.90
38866;DHT22;62686;48.984;8.394;2023-02-01T07:18:20;5.00;99.90
38866;DHT22;62686;48.984;8.394;2023-02-01T07:20:50;5.00;99.90
38866;DHT22;62686;48.984;8.394;2023-02-01T07:23:18;5.00;99.90
38866;DHT22;62686;48.984;8.394;2023-02-01T07:25:46;4.90;99.90
38866;DHT22;62686;48.984;8.394;2023-02-01T07:28:15;5.00;99.90
38866;DHT22;62686;48.984;8.394;2023-02-01T07:30:44;4.90;99.90
38866;DHT22;62686;48.984;8.394;2023-02-01T07:33:19;5.00;99.90
38866;DHT22;62686;48.984;8.394;2023-02-01T07:35:48;5.00;99.90
38866;DHT22;62686;48.984;8.394;2023-02-01T07:38:17;5.00;99.90
38866;DHT22;62686;48.984;8.394;2023-02-01T07:40:46;5.00;99.90
38866;DHT22;62686;48.984;8.394;2023-02-01T07:43:14;5.00;99.90
38866;DHT22;62686;48.984;8.394;2023-02-01T07:45:49;5.00;99.90
38866;DHT22;62686;48.984;8.394;2023-02-01T07:48:17;5.00;99.90
38866;DHT22;62686;48.984;8.394;2023-02-01T07:50:46;5.00;99.90
38866;DHT22;62686;48.984;8.394;2023-02-01T07:53:14;4.90;99.90
38866;DHT22;62686;48.984;8.394;2023-02-01T07:55:42;5.00;99.90
38866;DHT22;62686;48.984;8.394;2023-02-01T07:58:10;5.00;99.90
38866;DHT22;62686;48.984;8.394;2023-02-01T08:00:38;5.00;99.90
38866;DHT22;62686;48.984;8.394;2023-02-01T08:03:25;4.90;99.90
38866;DHT22;62686;48.984;8.394;2023-02-01T08:05:54;4.90;99.90
38866;DHT22;62686;48.984;8.394;2023-02-01T08:08:22;5.00;99.90
38866;DHT22;62686;48.984;8.394;2023-02-01T08:10:50;5.10;99.90
38866;DHT22;62686;48.984;8.394;2023-02-01T08:13:18;5.20;99.90
38866;DHT22;62686;48.984;8.394;2023-02-01T08:15:46;5.30;99.90
38866;DHT22;62686;48.984;8.394;2023-02-01T08:18:14;5.30;99.90
38866;DHT22;62686;48.984;8.394;2023-02-01T08:20:46;5.30;99.90
38866;DHT22;62686;48.984;8.394;2023-02-01T08:23:14;5.30;99.90
38866;DHT22;62686;48.984;8.394;2023-02-01T08:25:42;5.40;99.90
38866;DHT22;62686;48.984;8.394;2023-02-01T08:28:10;5.40;99.90
38866;DHT22;62686;48.984;8.394;2023-02-01T08:30:39;5.30;99.90
38866;DHT22;62686;48.984;8.394;2023-02-01T08:33:09;5.30;99.90
38866;DHT22;62686;48.984;8.394;2023-02-01T08:35:38;5.30;99.90
38866;DHT22;62686;48.984;8.394;2023-02-01T08:38:11;5.30;99.90
38866;DHT22;62686;48.984;8.394;2023-02-01T08:40:39;5.30;99.90
38866;DHT22;62686;48.984;8.394;2023-02-01T08:43:08;5.20;99.90
38866;DHT22;62686;48.984;8.394;2023-02-01T08:45:36;5.30;99.90
38866;DHT22;62686;48.984;8.394;2023-02-01T08:48:04;5.20;99.90
38866;DHT22;62686;48.984;8.394;2023-02-01T08:50:32;5.20;99.90
38866;DHT22;62686;48.984;8.394;2023-02-01T08:53:01;5.10;99.90
38866;DHT22;62686;48.984;8.394;2023-02-01T08:55:30;5.10;99.90
38866;DHT22;62686;48.984;8.394;2023-02-01T08:57:58;5.10;99.90
38866;DHT22;62686;48.984;8.394;2023-02-01T09:00:26;5.10;99.90
38866;DHT22;62686;48.984;8.394;2023-02-01T09:02:55;5.20;99.90
38866;DHT22;62686;48.984;8.394;2023-02-01T09:05:23;5.30;99.90
38866;DHT22;62686;48.984;8.394;2023-02-01T09:07:56;5.30;99.90
38866;DHT22;62686;48.984;8.394;2023-02-01T09:10:24;5.40;99.90
38866;DHT22;62686;48.984;8.394;2023-02-01T09:13:02;5.50;99.90
38866;DHT22;62686;48.984;8.394;2023-02-01T09:15:30;5.60;99.90
38866;DHT22;62686;48.984;8.394;2023-02-01T09:17:59;5.70;99.90
38866;DHT22;62686;48.984;8.394;2023-02-01T09:20:27;5.90;99.90
38866;DHT22;62686;48.984;8.394;2023-02-01T09:22:55;6.10;99.90
38866;DHT22;62686;48.984;8.394;2023-02-01T09:25:23;6.20;99.90
38866;DHT22;62686;48.984;8.394;2023-02-01T09:27:51;6.30;99.90
38866;DHT22;62686;48.984;8.394;2023-02-01T09:30:21;6.30;99.90
38866;DHT22;62686;48.984;8.394;2023-02-01T09:32:49;6.40;99.90
38866;DHT22;62686;48.984;8.394;2023-02-01T09:35:17;6.50;99.90
38866;DHT22;62686;48.984;8.394;2023-02-01T09:37:45;6.60;99.90
38866;DHT22;62686;48.984;8.394;2023-02-01T09:40:14;6.60;99.90
38866;DHT22;62686;48.984;8.394;2023-02-01T09:43:04;6.40;99.90
38866;DHT22;62686;48.984;8.394;2023-02-01T09:45:40;6.40;99.90
38866;DHT22;62686;48.984;8.394;2023-02-01T09:48:14;6.30;99.90
38866;DHT22;62686;48.984;8.394;2023-02-01T09:50:47;6.20;99.90
38866;DHT22;62686;48.984;8.394;2023-02-01T09:53:21;6.10;99.90
38866;DHT22;62686;48.984;8.394;2023-02-01T09:55:53;6.10;99.90
38866;DHT22;62686;48.984;8.394;2023-02-01T09:58:29;6.10;99.90
38866;DHT22;62686;48.984;8.394;2023-02-01T10:01:01;6.10;99.90
38866;DHT22;62686;48.984;8.394;2023-02-01T10:03:31;6.20;99.90
38866;DHT22;62686;48.984;8.394;2023-02-01T10:06:26;6.30;99.90
38866;DHT22;62686;48.984;8.394;2023-02-01T10:09:16;6.30;99.90
38866;DHT22;62686;48.984;8.394;2023-02-01T10:12:04;6.30;99.90
38866;DHT22;62686;48.984;8.394;2023-02-01T10:14:50;6.20;99.90
38866;DHT22;62686;48.984;8.394;2023-02-01T10:17:35;6.30;99.90
38866;DHT22;62686;48.984;8.394;2023-02-01T10:20:13;6.30;99.90
38866;DHT22;62686;48.984;8.394;2023-02-01T10:22:47;6.30;99.90
38866;DHT22;62686;48.984;8.394;2023-02-01T10:25:46;6.50;99.90
38866;DHT22;62686;48.984;8.394;2023-02-01T10:28:20;6.60;99.90
38866;DHT22;62686;48.984;8.394;2023-02-01T10:30:52;6.70;99.90
38866;DHT22;62686;48.984;8.394;2023-02-01T10:33:25;6.90;99.90
38866;DHT22;62686;48.984;8.394;2023-02-01T10:35:58;6.90;99.90
38866;DHT22;62686;48.984;8.394;2023-02-01T10:38:32;6.90;99.90
38866;DHT22;62686;48.984;8.394;2023-02-01T10:41:03;7.00;99.90
38866;DHT22;62686;48.984;8.394;2023-02-01T10:43:35;7.00;99.90
38866;DHT22;62686;48.984;8.394;2023-02-01T10:46:05;7.00;99.90
38866;DHT22;62686;48.984;8.394;2023-02-01T10:48:36;7.00;99.90
38866;DHT22;62686;48.984;8.394;2023-02-01T10:51:07;7.00;99.90
38866;DHT22;62686;48.984;8.394;2023-02-01T10:53:44;7.10;99.90
38866;DHT22;62686;48.984;8.394;2023-02-01T10:56:22;7.20;99.90
38866;DHT22;62686;48.984;8.394;2023-02-01T10:58:50;7.20;99.90
38866;DHT22;62686;48.984;8.394;2023-02-01T11:01:21;7.30;99.90
38866;DHT22;62686;48.984;8.394;2023-02-01T11:03:54;7.20;99.90
38866;DHT22;62686;48.984;8.394;2023-02-01T11:06:27;7.20;99.90
38866;DHT22;62686;48.984;8.394;2023-02-01T11:08:57;7.20;99.90
38866;DHT22;62686;48.984;8.394;2023-02-01T11:11:25;7.10;99.90
38866;DHT22;62686;48.984;8.394;2023-02-01T11:13:56;7.00;99.90
38866;DHT22;62686;48.984;8.394;2023-02-01T11:16:35;7.10;99.90
38866;DHT22;62686;48.984;8.394;2023-02-01T11:19:05;7.10;99.90
38866;DHT22;62686;48.984;8.394;2023-02-01T11:21:33;7.10;99.90
38866;DHT22;62686;48.984;8.394;2023-02-01T11:24:05;7.10;99.90
38866;DHT22;62686;48.984;8.394;2023-02-01T11:26:39;7.10;99.90
38866;DHT22;62686;48.984;8.394;2023-02-01T11:29:12;7.20;99.90
38866;DHT22;62686;48.984;8.394;2023-02-01T11:31:44;7.10;99.90
38866;DHT22;62686;48.984;8.394;2023-02-01T11:34:17;7.00;99.90
38866;DHT22;62686;48.984;8.394;2023-02-01T11:36:49;7.00;99.90
38866;DHT22;62686;48.984;8.394;2023-02-01T11:39:23;6.90;99.90
38866;DHT22;62686;48.984;8.394;2023-02-01T11:41:58;6.90;99.90
38866;DHT22;62686;48.984;8.394;2023-02-01T11:44:32;6.90;99.90
38866;DHT22;62686;48.984;8.394;2023-02-01T11:47:19;6.90;99.90
38866;DHT22;62686;48.984;8.394;2023-02-01T11:49:50;7.00;99.90
38866;DHT22;62686;48.984;8.394;2023-02-01T11:52:32;7.00;99.90
38866;DHT22;62686;48.984;8.394;2023-02-01T11:55:30;7.20;99.90
38866;DHT22;62686;48.984;8.394;2023-02-01T11:58:11;7.50;99.90
38866;DHT22;62686;48.984;8.394;2023-02-01T12:00:51;7.70;99.90
38866;DHT22;62686;48.984;8.394;2023-02-01T12:03:50;7.80;99.90
38866;DHT22;62686;48.984;8.394;2023-02-01T12:06:29;7.70;99.90
38866;DHT22;62686;48.984;8.394;2023-02-01T12:09:10;7.60;99.90
38866;DHT22;62686;48.984;8.394;2023-02-01T12:11:51;7.50;99.90
38866;DHT22;62686;48.984;8.394;2023-02-01T12:14:40;7.40;99.90
38866;DHT22;62686;48.984;8.394;2023-02-01T12:17:42;7.40;99.90
38866;DHT22;62686;48.984;8.394;2023-02-01T12:20:24;7.40;99.90
38866;DHT22;62686;48.984;8.394;2023-02-01T12:23:10;7.50;99.90
38866;DHT22;62686;48.984;8.394;2023-02-01T12:25:54;7.40;99.90
38866;DHT22;62686;48.984;8.394;2023-02-01T12:28:40;7.30;99.90
38866;DHT22;62686;48.984;8.394;2023-02-01T12:31:31;7.30;99.90
38866;DHT22;62686;48.984;8.394;2023-02-01T12:34:25;7.30;99.90
38866;DHT22;62686;48.984;8.394;2023-02-01T12:37:03;7.20;99.90
38866;DHT22;62686;48.984;8.394;2023-02-01T12:39:39;7.10;99.90
38866;DHT22;62686;48.984;8.394;2023-02-01T12:42:11;7.10;99.90
38866;DHT22;62686;48.984;8.394;2023-02-01T12:44:46;7.10;99.90
38866;DHT22;62686;48.984;8.394;2023-02-01T12:47:22;7.10;99.90
38866;DHT22;62686;48.984;8.394;2023-02-01T12:49:57;7.20;99.90
38866;DHT22;62686;48.984;8.394;2023-02-01T12:52:33;7.10;99.90
38866;DHT22;62686;48.984;8.394;2023-02-01T12:57:42;7.00;99.90
38866;DHT22;62686;48.984;8.394;2023-02-01T13:00:17;6.90;99.90
38866;DHT22;62686;48.984;8.394;2023-02-01T13:02:55;6.90;99.90
38866;DHT22;62686;48.984;8.394;2023-02-01T13:05:28;6.70;99.90
38866;DHT22;62686;48.984;8.394;2023-02-01T13:08:00;6.70;99.90
38866;DHT22;62686;48.984;8.394;2023-02-01T13:10:33;6.70;99.90
38866;DHT22;62686;48.984;8.394;2023-02-01T13:13:15;6.70;99.90
38866;DHT22;62686;48.984;8.394;2023-02-01T13:15:48;6.80;99.90
38866;DHT22;62686;48.984;8.394;2023-02-01T13:18:20;6.90;99.90
38866;DHT22;62686;48.984;8.394;2023-02-01T13:20:53;6.90;99.90
38866;DHT22;62686;48.984;8.394;2023-02-01T13:23:26;6.80;99.90
38866;DHT22;62686;48.984;8.394;2023-02-01T13:25:55;6.80;99.90
38866;DHT22;62686;48.984;8.394;2023-02-01T13:28:27;6.80;99.90
38866;DHT22;62686;48.984;8.394;2023-02-01T13:31:06;6.80;99.90
38866;DHT22;62686;48.984;8.394;2023-02-01T13:33:49;6.90;99.90
38866;DHT22;62686;48.984;8.394;2023-02-01T13:36:46;6.90;99.90
38866;DHT22;62686;48.984;8.394;2023-02-01T13:39:47;7.00;99.90
38866;DHT22;62686;48.984;8.394;2023-02-01T13:42:19;7.00;99.90
38866;DHT22;62686;48.984;8.394;2023-02-01T13:44:51;7.10;99.90
38866;DHT22;62686;48.984;8.394;2023-02-01T13:47:25;7.00;99.90
38866;DHT22;62686;48.984;8.394;2023-02-01T13:49:56;7.10;99.90
38866;DHT22;62686;48.984;8.394;2023-02-01T13:52:32;7.10;99.90
38866;DHT22;62686;48.984;8.394;2023-02-01T13:55:16;7.10;99.90
38866;DHT22;62686;48.984;8.394;2023-02-01T13:57:58;7.20;99.90
38866;DHT22;62686;48.984;8.394;2023-02-01T14:00:31;7.20;99.90
38866;DHT22;62686;48.984;8.394;2023-02-01T14:03:19;7.20;99.90
38866;DHT22;62686;48.984;8.394;2023-02-01T14:06:15;7.30;99.90
38866;DHT22;62686;48.984;8.394;2023-02-01T14:09:10;7.30;99.90
38866;DHT22;62686;48.984;8.394;2023-02-01T14:11:43;7.40;99.90
38866;DHT22;62686;48.984;8.394;2023-02-01T14:17:35;7.30;99.90
38866;DHT22;62686;48.984;8.394;2023-02-01T14:23:15;7.20;99.90
38866;DHT22;62686;48.984;8.394;2023-02-01T14:25:44;7.30;99.90
38866;DHT22;62686;48.984;8.394;2023-02-01T14:28:26;7.30;99.90
38866;DHT22;62686;48.984;8.394;2023-02-01T14:30:57;7.40;99.90
38866;DHT22;62686;48.984;8.394;2023-02-01T14:33:27;7.40;99.90
38866;DHT22;62686;48.984;8.394;2023-02-01T14:36:05;7.40;99.90
38866;DHT22;62686;48.984;8.394;2023-02-01T14:38:36;7.30;99.90
38866;DHT22;62686;48.984;8.394;2023-02-01T14:41:30;7.30;99.90
38866;DHT22;62686;48.984;8.394;2023-02-01T14:44:33;7.30;99.90
38866;DHT22;62686;48.984;8.394;2023-02-01T14:47:30;7.30;99.90
38866;DHT22;62686;48.984;8.394;2023-02-01T14:50:17;7.30;99.90
38866;DHT22;62686;48.984;8.394;2023-02-01T14:52:57;7.30;99.90
38866;DHT22;62686;48.984;8.394;2023-02-01T14:55:30;7.40;99.90
38866;DHT22;62686;48.984;8.394;2023-02-01T14:58:05;7.50;99.90
38866;DHT22;62686;48.984;8.394;2023-02-01T15:00:33;7.60;99.90
38866;DHT22;62686;48.984;8.394;2023-02-01T15:03:25;7.70;99.90
38866;DHT22;62686;48.984;8.394;2023-02-01T15:05:59;7.80;99.90
38866;DHT22;62686;48.984;8.394;2023-02-01T15:08:30;7.80;99.90
38866;DHT22;62686;48.984;8.394;2023-02-01T15:11:02;7.80;99.90
38866;DHT22;62686;48.984;8.394;2023-02-01T15:13:33;7.70;99.90
38866;DHT22;62686;48.984;8.394;2023-02-01T15:16:03;7.70;99.90
38866;DHT22;62686;48.984;8.394;2023-02-01T15:18:32;7.70;99.90
38866;DHT22;62686;48.984;8.394;2023-02-01T15:21:02;7.70;99.90
38866;DHT22;62686;48.984;8.394;2023-02-01T15:23:33;7.70;99.90
38866;DHT22;62686;48.984;8.394;2023-02-01T15:26:01;7.80;99.90
38866;DHT22;62686;48.984;8.394;2023-02-01T15:28:29;7.80;99.90
38866;DHT22;62686;48.984;8.394;2023-02-01T15:30:59;7.70;99.90
38866;DHT22;62686;48.984;8.394;2023-02-01T15:33:29;7.70;99.90
38866;DHT22;62686;48.984;8.394;2023-02-01T15:36:09;7.60;99.90
38866;DHT22;62686;48.984;8.394;2023-02-01T15:38:40;7.70;99.90
38866;DHT22;62686;48.984;8.394;2023-02-01T15:41:11;7.60;99.90
38866;DHT22;62686;48.984;8.394;2023-02-01T15:43:43;7.50;99.90
38866;DHT22;62686;48.984;8.394;2023-02-01T15:46:14;7.40;99.90
38866;DHT22;62686;48.984;8.394;2023-02-01T15:48:46;7.40;99.90
38866;DHT22;62686;48.984;8.394;2023-02-01T15:51:19;7.40;99.90
38866;DHT22;62686;48.984;8.394;2023-02-01T15:53:51;7.40;99.90
38866;DHT22;62686;48.984;8.394;2023-02-01T15:56:25;7.40;99.90
38866;DHT22;62686;48.984;8.394;2023-02-01T15:58:56;7.30;99.90
38866;DHT22;62686;48.984;8.394;2023-02-01T16:01:25;7.30;99.90
38866;DHT22;62686;48.984;8.394;2023-02-01T16:04:10;7.20;99.90
38866;DHT22;62686;48.984;8.394;2023-02-01T16:06:48;7.20;99.90
38866;DHT22;62686;48.984;8.394;2023-02-01T16:09:17;7.20;99.90
38866;DHT22;62686;48.984;8.394;2023-02-01T16:11:55;7.20;99.90
38866;DHT22;62686;48.984;8.394;2023-02-01T16:14:25;7.20;99.90
38866;DHT22;62686;48.984;8.394;2023-02-01T16:16:55;7.20;99.90
38866;DHT22;62686;48.984;8.394;2023-02-01T16:19:24;7.10;99.90
38866;DHT22;62686;48.984;8.394;2023-02-01T16:21:56;7.10;99.90
38866;DHT22;62686;48.984;8.394;2023-02-01T16:24:25;7.10;99.90
38866;DHT22;62686;48.984;8.394;2023-02-01T16:26:54;7.10;99.90
38866;DHT22;62686;48.984;8.394;2023-02-01T16:29:22;7.10;99.90
38866;DHT22;62686;48.984;8.394;2023-02-01T16:31:51;7.10;99.90
38866;DHT22;62686;48.984;8.394;2023-02-01T16:34:19;7.10;99.90
38866;DHT22;62686;48.984;8.394;2023-02-01T16:36:48;7.10;99.90
38866;DHT22;62686;48.984;8.394;2023-02-01T16:39:20;7.10;99.90
38866;DHT22;62686;48.984;8.394;2023-02-01T16:41:48;7.10;99.90
38866;DHT22;62686;48.984;8.394;2023-02-01T16:44:17;7.10;99.90